Terminal Aerodrome Forecast
Issued by NWS

Home | Current Version | Previous Version | Text Only | Print | Product List | Glossary On
Versions: 1 2 3 4 5 6 7 8 9 10 11 12 13 14 15 16 17 18 19
701
FTUS42 KTAE 302339
TAFECP
TAF
KECP 302339Z 0100/0124 16010KT P6SM SCT030 BKN250
     FM010400 10004KT P6SM BKN200
     FM010700 17003KT 2SM BR BKN003
     FM011400 17005KT P6SM SCT030
     FM011900 19010KT P6SM SCT040=

USA.gov is the U.S. government's official web portal to all federal, state and local government web resources and services.